sensor_id;sensor_type;location;lat;lon;timestamp;P1;durP1;ratioP1;P2;durP2;ratioP2
39448;SDS011;25151;45.566;9.382;2023-07-31T00:02:19;4.78;;;2.65;;
39448;SDS011;25151;45.566;9.382;2023-07-31T00:04:46;5.82;;;2.65;;
39448;SDS011;25151;45.566;9.382;2023-07-31T00:07:14;5.88;;;2.47;;
39448;SDS011;25151;45.566;9.382;2023-07-31T00:09:43;6.63;;;2.67;;
39448;SDS011;25151;45.566;9.382;2023-07-31T00:12:11;5.30;;;2.53;;
39448;SDS011;25151;45.566;9.382;2023-07-31T00:14:38;6.50;;;2.70;;
39448;SDS011;25151;45.566;9.382;2023-07-31T00:17:04;7.18;;;2.47;;
39448;SDS011;25151;45.566;9.382;2023-07-31T00:19:31;6.68;;;2.50;;
39448;SDS011;25151;45.566;9.382;2023-07-31T00:21:57;5.50;;;2.45;;
39448;SDS011;25151;45.566;9.382;2023-07-31T00:24:23;3.88;;;2.65;;
39448;SDS011;25151;45.566;9.382;2023-07-31T00:26:50;3.28;;;2.33;;
39448;SDS011;25151;45.566;9.382;2023-07-31T00:29:16;4.20;;;2.30;;
39448;SDS011;25151;45.566;9.382;2023-07-31T00:31:44;5.30;;;2.70;;
39448;SDS011;25151;45.566;9.382;2023-07-31T00:34:10;4.05;;;2.25;;
39448;SDS011;25151;45.566;9.382;2023-07-31T00:36:36;5.97;;;2.80;;
39448;SDS011;25151;45.566;9.382;2023-07-31T00:39:02;5.53;;;2.95;;
39448;SDS011;25151;45.566;9.382;2023-07-31T00:41:29;4.60;;;2.10;;
39448;SDS011;25151;45.566;9.382;2023-07-31T00:43:56;5.57;;;2.83;;
39448;SDS011;25151;45.566;9.382;2023-07-31T00:46:22;5.00;;;2.50;;
39448;SDS011;25151;45.566;9.382;2023-07-31T00:48:48;5.40;;;2.47;;
39448;SDS011;25151;45.566;9.382;2023-07-31T00:51:15;4.55;;;2.72;;
39448;SDS011;25151;45.566;9.382;2023-07-31T00:53:42;6.18;;;2.83;;
39448;SDS011;25151;45.566;9.382;2023-07-31T00:56:12;3.88;;;2.08;;
39448;SDS011;25151;45.566;9.382;2023-07-31T00:58:38;4.65;;;2.05;;
39448;SDS011;25151;45.566;9.382;2023-07-31T01:01:07;4.90;;;2.63;;
39448;SDS011;25151;45.566;9.382;2023-07-31T01:03:33;3.63;;;2.05;;
39448;SDS011;25151;45.566;9.382;2023-07-31T01:06:09;4.55;;;2.50;;
39448;SDS011;25151;45.566;9.382;2023-07-31T01:08:42;4.88;;;2.85;;
39448;SDS011;25151;45.566;9.382;2023-07-31T01:11:30;5.43;;;2.28;;
39448;SDS011;25151;45.566;9.382;2023-07-31T01:13:59;4.63;;;2.75;;
39448;SDS011;25151;45.566;9.382;2023-07-31T01:16:26;4.20;;;2.30;;
39448;SDS011;25151;45.566;9.382;2023-07-31T01:18:55;5.53;;;2.72;;
39448;SDS011;25151;45.566;9.382;2023-07-31T01:21:23;6.32;;;2.65;;
39448;SDS011;25151;45.566;9.382;2023-07-31T01:26:52;4.97;;;2.15;;
39448;SDS011;25151;45.566;9.382;2023-07-31T01:29:25;4.75;;;2.42;;
39448;SDS011;25151;45.566;9.382;2023-07-31T01:31:53;6.45;;;2.20;;
39448;SDS011;25151;45.566;9.382;2023-07-31T01:34:23;5.47;;;2.25;;
39448;SDS011;25151;45.566;9.382;2023-07-31T01:36:50;4.30;;;2.20;;
39448;SDS011;25151;45.566;9.382;2023-07-31T01:39:16;4.00;;;2.15;;
39448;SDS011;25151;45.566;9.382;2023-07-31T01:41:45;5.97;;;2.42;;
39448;SDS011;25151;45.566;9.382;2023-07-31T01:44:12;4.05;;;2.60;;
39448;SDS011;25151;45.566;9.382;2023-07-31T01:46:38;5.47;;;2.40;;
39448;SDS011;25151;45.566;9.382;2023-07-31T01:49:05;4.38;;;1.92;;
39448;SDS011;25151;45.566;9.382;2023-07-31T01:51:31;4.10;;;2.22;;
39448;SDS011;25151;45.566;9.382;2023-07-31T01:54:01;6.45;;;2.22;;
39448;SDS011;25151;45.566;9.382;2023-07-31T01:56:30;5.88;;;2.08;;
39448;SDS011;25151;45.566;9.382;2023-07-31T01:58:56;6.60;;;2.60;;
39448;SDS011;25151;45.566;9.382;2023-07-31T02:01:22;4.07;;;2.10;;
39448;SDS011;25151;45.566;9.382;2023-07-31T02:03:49;4.93;;;2.30;;
39448;SDS011;25151;45.566;9.382;2023-07-31T02:06:19;6.22;;;2.28;;
39448;SDS011;25151;45.566;9.382;2023-07-31T02:08:45;4.80;;;2.53;;
39448;SDS011;25151;45.566;9.382;2023-07-31T02:11:11;4.63;;;2.08;;
39448;SDS011;25151;45.566;9.382;2023-07-31T02:13:38;5.88;;;2.55;;
39448;SDS011;25151;45.566;9.382;2023-07-31T02:16:04;3.90;;;2.28;;
39448;SDS011;25151;45.566;9.382;2023-07-31T02:18:30;4.20;;;2.58;;
39448;SDS011;25151;45.566;9.382;2023-07-31T02:20:56;3.05;;;2.13;;
39448;SDS011;25151;45.566;9.382;2023-07-31T02:23:22;3.95;;;2.55;;
39448;SDS011;25151;45.566;9.382;2023-07-31T02:25:49;5.80;;;2.40;;
39448;SDS011;25151;45.566;9.382;2023-07-31T02:28:15;4.80;;;2.50;;
39448;SDS011;25151;45.566;9.382;2023-07-31T02:30:43;5.22;;;2.50;;
39448;SDS011;25151;45.566;9.382;2023-07-31T02:33:12;3.70;;;2.00;;
39448;SDS011;25151;45.566;9.382;2023-07-31T02:35:39;4.80;;;2.22;;
39448;SDS011;25151;45.566;9.382;2023-07-31T02:38:05;4.35;;;2.30;;
39448;SDS011;25151;45.566;9.382;2023-07-31T02:40:32;6.20;;;2.45;;
39448;SDS011;25151;45.566;9.382;2023-07-31T02:42:58;3.97;;;2.47;;
39448;SDS011;25151;45.566;9.382;2023-07-31T02:45:24;4.50;;;2.13;;
39448;SDS011;25151;45.566;9.382;2023-07-31T02:47:51;5.80;;;2.47;;
39448;SDS011;25151;45.566;9.382;2023-07-31T02:50:17;3.80;;;2.15;;
39448;SDS011;25151;45.566;9.382;2023-07-31T02:52:44;4.57;;;2.33;;
39448;SDS011;25151;45.566;9.382;2023-07-31T02:55:10;3.40;;;2.20;;
39448;SDS011;25151;45.566;9.382;2023-07-31T02:57:36;5.68;;;2.50;;
39448;SDS011;25151;45.566;9.382;2023-07-31T03:00:03;3.88;;;1.92;;
39448;SDS011;25151;45.566;9.382;2023-07-31T03:02:31;3.60;;;2.67;;
39448;SDS011;25151;45.566;9.382;2023-07-31T03:05:00;6.07;;;2.38;;
39448;SDS011;25151;45.566;9.382;2023-07-31T03:07:29;5.85;;;2.58;;
39448;SDS011;25151;45.566;9.382;2023-07-31T03:09:56;5.82;;;2.63;;
39448;SDS011;25151;45.566;9.382;2023-07-31T03:12:22;4.53;;;2.35;;
39448;SDS011;25151;45.566;9.382;2023-07-31T03:14:51;4.13;;;2.22;;
39448;SDS011;25151;45.566;9.382;2023-07-31T03:17:17;2.95;;;1.98;;
39448;SDS011;25151;45.566;9.382;2023-07-31T03:19:46;2.67;;;1.80;;
39448;SDS011;25151;45.566;9.382;2023-07-31T03:22:12;4.45;;;2.53;;
39448;SDS011;25151;45.566;9.382;2023-07-31T03:24:39;3.40;;;1.95;;
39448;SDS011;25151;45.566;9.382;2023-07-31T03:27:05;5.30;;;2.10;;
39448;SDS011;25151;45.566;9.382;2023-07-31T03:29:32;4.20;;;2.00;;
39448;SDS011;25151;45.566;9.382;2023-07-31T03:31:59;3.45;;;2.15;;
39448;SDS011;25151;45.566;9.382;2023-07-31T03:34:26;5.20;;;2.58;;
39448;SDS011;25151;45.566;9.382;2023-07-31T03:36:52;4.63;;;2.22;;
39448;SDS011;25151;45.566;9.382;2023-07-31T03:39:18;3.53;;;2.00;;
39448;SDS011;25151;45.566;9.382;2023-07-31T03:41:45;3.33;;;2.17;;
39448;SDS011;25151;45.566;9.382;2023-07-31T03:44:11;3.55;;;2.40;;
39448;SDS011;25151;45.566;9.382;2023-07-31T03:46:39;4.82;;;2.00;;
39448;SDS011;25151;45.566;9.382;2023-07-31T03:49:06;3.50;;;1.92;;
39448;SDS011;25151;45.566;9.382;2023-07-31T03:51:32;4.82;;;2.10;;
39448;SDS011;25151;45.566;9.382;2023-07-31T03:53:58;5.50;;;2.30;;
39448;SDS011;25151;45.566;9.382;2023-07-31T03:56:25;5.43;;;2.20;;
39448;SDS011;25151;45.566;9.382;2023-07-31T03:58:54;6.03;;;2.20;;
39448;SDS011;25151;45.566;9.382;2023-07-31T04:01:20;6.78;;;3.15;;
39448;SDS011;25151;45.566;9.382;2023-07-31T04:03:47;7.15;;;3.92;;
39448;SDS011;25151;45.566;9.382;2023-07-31T04:06:14;4.40;;;3.25;;
39448;SDS011;25151;45.566;9.382;2023-07-31T04:08:43;11.25;;;4.30;;
39448;SDS011;25151;45.566;9.382;2023-07-31T04:11:10;4.60;;;3.28;;
39448;SDS011;25151;45.566;9.382;2023-07-31T04:13:40;5.40;;;3.67;;
39448;SDS011;25151;45.566;9.382;2023-07-31T04:16:09;5.03;;;3.53;;
39448;SDS011;25151;45.566;9.382;2023-07-31T04:18:37;5.47;;;4.15;;
39448;SDS011;25151;45.566;9.382;2023-07-31T04:21:03;7.43;;;4.40;;
39448;SDS011;25151;45.566;9.382;2023-07-31T04:23:35;7.45;;;4.20;;
39448;SDS011;25151;45.566;9.382;2023-07-31T04:26:04;13.20;;;4.30;;
39448;SDS011;25151;45.566;9.382;2023-07-31T04:28:32;6.45;;;4.43;;
39448;SDS011;25151;45.566;9.382;2023-07-31T04:31:00;7.35;;;4.40;;
39448;SDS011;25151;45.566;9.382;2023-07-31T04:33:28;7.38;;;4.28;;
39448;SDS011;25151;45.566;9.382;2023-07-31T04:35:54;10.88;;;4.38;;
39448;SDS011;25151;45.566;9.382;2023-07-31T04:38:24;5.32;;;4.20;;
39448;SDS011;25151;45.566;9.382;2023-07-31T04:40:52;6.40;;;4.32;;
39448;SDS011;25151;45.566;9.382;2023-07-31T04:43:21;7.15;;;4.75;;
39448;SDS011;25151;45.566;9.382;2023-07-31T04:45:52;5.60;;;4.55;;
39448;SDS011;25151;45.566;9.382;2023-07-31T04:48:19;8.53;;;4.67;;
39448;SDS011;25151;45.566;9.382;2023-07-31T04:50:44;9.73;;;4.30;;
39448;SDS011;25151;45.566;9.382;2023-07-31T04:53:09;8.05;;;4.55;;
39448;SDS011;25151;45.566;9.382;2023-07-31T04:55:35;8.95;;;4.50;;
39448;SDS011;25151;45.566;9.382;2023-07-31T04:58:00;5.35;;;4.15;;
39448;SDS011;25151;45.566;9.382;2023-07-31T05:00:26;6.78;;;4.25;;
39448;SDS011;25151;45.566;9.382;2023-07-31T05:02:51;6.85;;;4.88;;
39448;SDS011;25151;45.566;9.382;2023-07-31T05:05:17;5.93;;;4.78;;
39448;SDS011;25151;45.566;9.382;2023-07-31T05:07:42;6.57;;;4.50;;
39448;SDS011;25151;45.566;9.382;2023-07-31T05:10:07;6.82;;;4.60;;
39448;SDS011;25151;45.566;9.382;2023-07-31T05:12:33;5.95;;;4.20;;
39448;SDS011;25151;45.566;9.382;2023-07-31T05:14:59;6.10;;;3.83;;
39448;SDS011;25151;45.566;9.382;2023-07-31T05:17:24;6.55;;;4.00;;
39448;SDS011;25151;45.566;9.382;2023-07-31T05:19:50;6.18;;;4.25;;
39448;SDS011;25151;45.566;9.382;2023-07-31T05:22:15;8.82;;;4.43;;
39448;SDS011;25151;45.566;9.382;2023-07-31T05:24:41;5.47;;;3.80;;
39448;SDS011;25151;45.566;9.382;2023-07-31T05:27:06;9.30;;;4.05;;
39448;SDS011;25151;45.566;9.382;2023-07-31T05:29:32;7.55;;;3.90;;
39448;SDS011;25151;45.566;9.382;2023-07-31T05:31:57;9.13;;;4.22;;
39448;SDS011;25151;45.566;9.382;2023-07-31T05:34:22;9.48;;;4.57;;
39448;SDS011;25151;45.566;9.382;2023-07-31T05:36:48;8.55;;;4.20;;
39448;SDS011;25151;45.566;9.382;2023-07-31T05:39:13;6.82;;;3.80;;
39448;SDS011;25151;45.566;9.382;2023-07-31T05:41:39;5.93;;;3.80;;
39448;SDS011;25151;45.566;9.382;2023-07-31T05:44:04;5.28;;;3.65;;
39448;SDS011;25151;45.566;9.382;2023-07-31T05:46:30;7.55;;;4.15;;
39448;SDS011;25151;45.566;9.382;2023-07-31T05:48:56;7.15;;;4.00;;
39448;SDS011;25151;45.566;9.382;2023-07-31T05:51:21;8.70;;;4.30;;
39448;SDS011;25151;45.566;9.382;2023-07-31T05:53:47;5.95;;;4.18;;
39448;SDS011;25151;45.566;9.382;2023-07-31T05:56:12;5.38;;;4.03;;
39448;SDS011;25151;45.566;9.382;2023-07-31T05:58:40;5.45;;;3.85;;
39448;SDS011;25151;45.566;9.382;2023-07-31T06:01:08;11.27;;;3.90;;
39448;SDS011;25151;45.566;9.382;2023-07-31T06:03:34;8.70;;;3.53;;
39448;SDS011;25151;45.566;9.382;2023-07-31T06:06:01;6.82;;;3.72;;
39448;SDS011;25151;45.566;9.382;2023-07-31T06:08:30;4.78;;;3.20;;
39448;SDS011;25151;45.566;9.382;2023-07-31T06:11:00;8.45;;;3.65;;
39448;SDS011;25151;45.566;9.382;2023-07-31T06:13:27;4.95;;;3.47;;
39448;SDS011;25151;45.566;9.382;2023-07-31T06:15:54;6.07;;;3.72;;
39448;SDS011;25151;45.566;9.382;2023-07-31T06:20:55;6.15;;;3.22;;
39448;SDS011;25151;45.566;9.382;2023-07-31T06:23:25;6.25;;;3.58;;
39448;SDS011;25151;45.566;9.382;2023-07-31T06:25:56;7.72;;;3.90;;
39448;SDS011;25151;45.566;9.382;2023-07-31T06:28:32;6.20;;;3.60;;
39448;SDS011;25151;45.566;9.382;2023-07-31T06:30:59;6.05;;;3.72;;
39448;SDS011;25151;45.566;9.382;2023-07-31T06:33:29;7.50;;;4.25;;
39448;SDS011;25151;45.566;9.382;2023-07-31T06:35:58;6.43;;;3.85;;
39448;SDS011;25151;45.566;9.382;2023-07-31T06:38:25;7.47;;;3.95;;
39448;SDS011;25151;45.566;9.382;2023-07-31T06:40:52;6.80;;;4.32;;
39448;SDS011;25151;45.566;9.382;2023-07-31T06:43:22;6.13;;;3.90;;
39448;SDS011;25151;45.566;9.382;2023-07-31T06:45:50;9.07;;;3.55;;
39448;SDS011;25151;45.566;9.382;2023-07-31T06:48:19;5.82;;;3.13;;
39448;SDS011;25151;45.566;9.382;2023-07-31T06:50:45;4.00;;;3.00;;
39448;SDS011;25151;45.566;9.382;2023-07-31T06:53:12;7.65;;;3.50;;
39448;SDS011;25151;45.566;9.382;2023-07-31T06:55:39;6.43;;;3.38;;
39448;SDS011;25151;45.566;9.382;2023-07-31T06:58:09;6.88;;;3.63;;
39448;SDS011;25151;45.566;9.382;2023-07-31T07:00:35;7.93;;;3.47;;
39448;SDS011;25151;45.566;9.382;2023-07-31T07:03:02;5.60;;;3.00;;
39448;SDS011;25151;45.566;9.382;2023-07-31T07:05:31;8.20;;;3.23;;
39448;SDS011;25151;45.566;9.382;2023-07-31T07:07:57;5.30;;;3.30;;
39448;SDS011;25151;45.566;9.382;2023-07-31T07:10:27;6.63;;;3.47;;
39448;SDS011;25151;45.566;9.382;2023-07-31T07:12:54;6.50;;;3.20;;
39448;SDS011;25151;45.566;9.382;2023-07-31T07:15:21;5.55;;;3.40;;
39448;SDS011;25151;45.566;9.382;2023-07-31T07:17:49;5.25;;;3.90;;
39448;SDS011;25151;45.566;9.382;2023-07-31T07:20:21;5.55;;;3.60;;
39448;SDS011;25151;45.566;9.382;2023-07-31T07:22:50;4.80;;;3.38;;
39448;SDS011;25151;45.566;9.382;2023-07-31T07:25:20;5.65;;;3.40;;
39448;SDS011;25151;45.566;9.382;2023-07-31T07:27:46;4.97;;;2.97;;
39448;SDS011;25151;45.566;9.382;2023-07-31T07:30:16;10.73;;;3.00;;
39448;SDS011;25151;45.566;9.382;2023-07-31T07:32:45;7.65;;;3.28;;
39448;SDS011;25151;45.566;9.382;2023-07-31T07:35:15;10.13;;;3.58;;
39448;SDS011;25151;45.566;9.382;2023-07-31T07:37:43;4.30;;;2.95;;
39448;SDS011;25151;45.566;9.382;2023-07-31T07:40:11;8.37;;;3.10;;
39448;SDS011;25151;45.566;9.382;2023-07-31T07:42:38;5.25;;;3.22;;
39448;SDS011;25151;45.566;9.382;2023-07-31T07:45:05;5.32;;;3.80;;
39448;SDS011;25151;45.566;9.382;2023-07-31T07:47:33;5.45;;;3.33;;
39448;SDS011;25151;45.566;9.382;2023-07-31T07:49:58;5.00;;;3.17;;
39448;SDS011;25151;45.566;9.382;2023-07-31T07:52:26;9.45;;;3.80;;
39448;SDS011;25151;45.566;9.382;2023-07-31T07:54:59;6.82;;;3.33;;
39448;SDS011;25151;45.566;9.382;2023-07-31T07:57:31;5.35;;;3.13;;
39448;SDS011;25151;45.566;9.382;2023-07-31T08:00:05;7.32;;;3.67;;
39448;SDS011;25151;45.566;9.382;2023-07-31T08:02:35;7.18;;;3.10;;
39448;SDS011;25151;45.566;9.382;2023-07-31T08:05:03;5.30;;;2.92;;
39448;SDS011;25151;45.566;9.382;2023-07-31T08:07:30;4.63;;;2.95;;
39448;SDS011;25151;45.566;9.382;2023-07-31T08:09:56;5.35;;;3.20;;
39448;SDS011;25151;45.566;9.382;2023-07-31T08:12:23;4.60;;;2.83;;
39448;SDS011;25151;45.566;9.382;2023-07-31T08:14:50;6.45;;;3.28;;
39448;SDS011;25151;45.566;9.382;2023-07-31T08:17:18;11.57;;;3.20;;
39448;SDS011;25151;45.566;9.382;2023-07-31T08:19:44;6.88;;;3.42;;
39448;SDS011;25151;45.566;9.382;2023-07-31T08:22:16;5.32;;;3.58;;
39448;SDS011;25151;45.566;9.382;2023-07-31T08:24:51;6.53;;;3.10;;
39448;SDS011;25151;45.566;9.382;2023-07-31T08:27:18;7.07;;;3.17;;
39448;SDS011;25151;45.566;9.382;2023-07-31T08:29:49;10.70;;;3.20;;
39448;SDS011;25151;45.566;9.382;2023-07-31T08:32:22;7.82;;;3.25;;
39448;SDS011;25151;45.566;9.382;2023-07-31T08:34:48;9.15;;;3.05;;
39448;SDS011;25151;45.566;9.382;2023-07-31T08:37:18;4.60;;;2.90;;
39448;SDS011;25151;45.566;9.382;2023-07-31T08:39:50;8.40;;;2.88;;
39448;SDS011;25151;45.566;9.382;2023-07-31T08:42:20;4.10;;;3.17;;
39448;SDS011;25151;45.566;9.382;2023-07-31T08:44:53;5.15;;;2.92;;
39448;SDS011;25151;45.566;9.382;2023-07-31T08:47:21;4.80;;;2.88;;
39448;SDS011;25151;45.566;9.382;2023-07-31T08:49:47;4.60;;;2.83;;
39448;SDS011;25151;45.566;9.382;2023-07-31T08:52:18;8.18;;;3.35;;
39448;SDS011;25151;45.566;9.382;2023-07-31T08:54:44;5.90;;;2.72;;
39448;SDS011;25151;45.566;9.382;2023-07-31T08:57:14;8.43;;;3.15;;
39448;SDS011;25151;45.566;9.382;2023-07-31T08:59:41;6.90;;;2.80;;
39448;SDS011;25151;45.566;9.382;2023-07-31T09:02:11;5.45;;;2.70;;
39448;SDS011;25151;45.566;9.382;2023-07-31T09:04:41;4.07;;;2.80;;
39448;SDS011;25151;45.566;9.382;2023-07-31T09:07:08;5.80;;;2.75;;
39448;SDS011;25151;45.566;9.382;2023-07-31T09:09:38;4.07;;;2.55;;
39448;SDS011;25151;45.566;9.382;2023-07-31T09:12:08;5.22;;;3.10;;
39448;SDS011;25151;45.566;9.382;2023-07-31T09:14:41;5.88;;;2.92;;
39448;SDS011;25151;45.566;9.382;2023-07-31T09:17:11;7.43;;;2.95;;
39448;SDS011;25151;45.566;9.382;2023-07-31T09:19:38;4.68;;;2.70;;
39448;SDS011;25151;45.566;9.382;2023-07-31T09:22:05;4.50;;;2.75;;
39448;SDS011;25151;45.566;9.382;2023-07-31T09:24:38;6.47;;;2.80;;
39448;SDS011;25151;45.566;9.382;2023-07-31T09:27:07;5.07;;;2.63;;
39448;SDS011;25151;45.566;9.382;2023-07-31T09:29:35;5.70;;;2.70;;
39448;SDS011;25151;45.566;9.382;2023-07-31T09:32:07;3.63;;;2.42;;
39448;SDS011;25151;45.566;9.382;2023-07-31T09:34:47;3.47;;;3.03;;
39448;SDS011;25151;45.566;9.382;2023-07-31T09:37:21;4.93;;;2.58;;
39448;SDS011;25151;45.566;9.382;2023-07-31T09:39:48;4.60;;;3.00;;
39448;SDS011;25151;45.566;9.382;2023-07-31T09:42:24;4.72;;;3.08;;
39448;SDS011;25151;45.566;9.382;2023-07-31T09:44:55;3.53;;;2.40;;
39448;SDS011;25151;45.566;9.382;2023-07-31T09:47:34;4.95;;;2.60;;
39448;SDS011;25151;45.566;9.382;2023-07-31T09:49:59;4.38;;;2.47;;
39448;SDS011;25151;45.566;9.382;2023-07-31T09:52:29;4.68;;;2.85;;
39448;SDS011;25151;45.566;9.382;2023-07-31T09:55:04;4.32;;;2.95;;
39448;SDS011;25151;45.566;9.382;2023-07-31T09:57:40;6.60;;;2.63;;
39448;SDS011;25151;45.566;9.382;2023-07-31T10:00:17;4.00;;;2.50;;
39448;SDS011;25151;45.566;9.382;2023-07-31T10:02:49;3.60;;;2.70;;
39448;SDS011;25151;45.566;9.382;2023-07-31T10:05:22;3.65;;;2.35;;
39448;SDS011;25151;45.566;9.382;2023-07-31T10:07:56;5.57;;;2.75;;
39448;SDS011;25151;45.566;9.382;2023-07-31T10:10:24;4.88;;;2.63;;
39448;SDS011;25151;45.566;9.382;2023-07-31T10:12:53;3.53;;;2.47;;
39448;SDS011;25151;45.566;9.382;2023-07-31T10:15:25;5.32;;;2.40;;
39448;SDS011;25151;45.566;9.382;2023-07-31T10:17:53;4.65;;;2.80;;
39448;SDS011;25151;45.566;9.382;2023-07-31T10:20:21;3.17;;;2.63;;
39448;SDS011;25151;45.566;9.382;2023-07-31T10:22:48;5.25;;;2.80;;
39448;SDS011;25151;45.566;9.382;2023-07-31T10:25:17;5.18;;;2.15;;
39448;SDS011;25151;45.566;9.382;2023-07-31T10:27:45;4.60;;;2.15;;
39448;SDS011;25151;45.566;9.382;2023-07-31T10:30:14;3.50;;;2.40;;
39448;SDS011;25151;45.566;9.382;2023-07-31T10:32:45;4.40;;;2.35;;
39448;SDS011;25151;45.566;9.382;2023-07-31T10:35:15;7.35;;;2.70;;
39448;SDS011;25151;45.566;9.382;2023-07-31T10:37:42;3.75;;;2.40;;
39448;SDS011;25151;45.566;9.382;2023-07-31T10:40:16;3.20;;;2.33;;
39448;SDS011;25151;45.566;9.382;2023-07-31T10:42:47;4.88;;;2.15;;
39448;SDS011;25151;45.566;9.382;2023-07-31T10:45:36;3.85;;;2.40;;
39448;SDS011;25151;45.566;9.382;2023-07-31T10:48:16;3.67;;;2.28;;
39448;SDS011;25151;45.566;9.382;2023-07-31T10:50:50;5.75;;;2.75;;
39448;SDS011;25151;45.566;9.382;2023-07-31T10:53:25;5.05;;;2.75;;
39448;SDS011;25151;45.566;9.382;2023-07-31T10:56:01;9.30;;;2.55;;
39448;SDS011;25151;45.566;9.382;2023-07-31T10:58:36;2.78;;;2.45;;
39448;SDS011;25151;45.566;9.382;2023-07-31T11:01:11;4.30;;;2.33;;
39448;SDS011;25151;45.566;9.382;2023-07-31T11:03:42;5.25;;;2.53;;
39448;SDS011;25151;45.566;9.382;2023-07-31T11:06:12;5.00;;;2.78;;
39448;SDS011;25151;45.566;9.382;2023-07-31T11:08:46;5.15;;;2.60;;
39448;SDS011;25151;45.566;9.382;2023-07-31T11:11:17;6.75;;;2.97;;
39448;SDS011;25151;45.566;9.382;2023-07-31T11:13:49;3.67;;;2.33;;
39448;SDS011;25151;45.566;9.382;2023-07-31T11:16:24;3.65;;;2.17;;
39448;SDS011;25151;45.566;9.382;2023-07-31T11:18:54;4.72;;;2.38;;
39448;SDS011;25151;45.566;9.382;2023-07-31T11:21:24;4.25;;;2.08;;
39448;SDS011;25151;45.566;9.382;2023-07-31T11:23:56;2.97;;;2.15;;
39448;SDS011;25151;45.566;9.382;2023-07-31T11:26:25;3.40;;;2.10;;
39448;SDS011;25151;45.566;9.382;2023-07-31T11:29:03;5.82;;;2.38;;
39448;SDS011;25151;45.566;9.382;2023-07-31T11:31:46;5.15;;;2.08;;
39448;SDS011;25151;45.566;9.382;2023-07-31T11:34:14;4.35;;;2.33;;
39448;SDS011;25151;45.566;9.382;2023-07-31T11:36:57;6.63;;;2.20;;
39448;SDS011;25151;45.566;9.382;2023-07-31T11:39:24;5.10;;;2.28;;
39448;SDS011;25151;45.566;9.382;2023-07-31T11:41:55;3.97;;;1.85;;
39448;SDS011;25151;45.566;9.382;2023-07-31T11:44:25;5.07;;;2.20;;
39448;SDS011;25151;45.566;9.382;2023-07-31T11:47:01;4.82;;;2.17;;
39448;SDS011;25151;45.566;9.382;2023-07-31T11:49:30;6.32;;;2.15;;
39448;SDS011;25151;45.566;9.382;2023-07-31T11:51:57;8.00;;;2.63;;
39448;SDS011;25151;45.566;9.382;2023-07-31T11:54:24;5.07;;;2.08;;
39448;SDS011;25151;45.566;9.382;2023-07-31T11:56:51;5.38;;;1.83;;
39448;SDS011;25151;45.566;9.382;2023-07-31T11:59:18;5.85;;;2.15;;
39448;SDS011;25151;45.566;9.382;2023-07-31T12:01:44;5.28;;;2.22;;
39448;SDS011;25151;45.566;9.382;2023-07-31T12:04:11;6.45;;;2.40;;
39448;SDS011;25151;45.566;9.382;2023-07-31T12:06:41;3.83;;;2.25;;
39448;SDS011;25151;45.566;9.382;2023-07-31T12:09:15;9.05;;;2.30;;
39448;SDS011;25151;45.566;9.382;2023-07-31T12:11:45;7.28;;;2.70;;
39448;SDS011;25151;45.566;9.382;2023-07-31T12:16:54;5.03;;;2.00;;
39448;SDS011;25151;45.566;9.382;2023-07-31T12:19:24;3.85;;;2.15;;
39448;SDS011;25151;45.566;9.382;2023-07-31T12:21:53;3.78;;;1.98;;
39448;SDS011;25151;45.566;9.382;2023-07-31T12:24:20;6.65;;;2.03;;
39448;SDS011;25151;45.566;9.382;2023-07-31T12:26:54;3.15;;;1.70;;
39448;SDS011;25151;45.566;9.382;2023-07-31T12:29:21;4.55;;;1.98;;
39448;SDS011;25151;45.566;9.382;2023-07-31T12:31:51;2.97;;;1.88;;
39448;SDS011;25151;45.566;9.382;2023-07-31T12:34:21;6.63;;;2.28;;
39448;SDS011;25151;45.566;9.382;2023-07-31T12:36:53;5.95;;;2.08;;
39448;SDS011;25151;45.566;9.382;2023-07-31T12:39:20;3.35;;;2.00;;
39448;SDS011;25151;45.566;9.382;2023-07-31T12:41:47;6.28;;;2.30;;
39448;SDS011;25151;45.566;9.382;2023-07-31T12:44:14;3.85;;;1.70;;
39448;SDS011;25151;45.566;9.382;2023-07-31T12:46:42;3.20;;;2.25;;
39448;SDS011;25151;45.566;9.382;2023-07-31T12:49:09;5.47;;;2.17;;
39448;SDS011;25151;45.566;9.382;2023-07-31T12:51:36;4.13;;;1.83;;
39448;SDS011;25151;45.566;9.382;2023-07-31T12:54:03;3.10;;;1.70;;
39448;SDS011;25151;45.566;9.382;2023-07-31T12:56:31;4.53;;;1.90;;
39448;SDS011;25151;45.566;9.382;2023-07-31T12:58:58;5.22;;;2.70;;
39448;SDS011;25151;45.566;9.382;2023-07-31T13:01:25;4.95;;;2.22;;
39448;SDS011;25151;45.566;9.382;2023-07-31T13:03:52;7.90;;;2.03;;
39448;SDS011;25151;45.566;9.382;2023-07-31T13:06:19;3.67;;;1.90;;
39448;SDS011;25151;45.566;9.382;2023-07-31T13:08:46;6.25;;;2.13;;
39448;SDS011;25151;45.566;9.382;2023-07-31T13:11:13;4.78;;;2.38;;
39448;SDS011;25151;45.566;9.382;2023-07-31T13:13:40;3.25;;;1.92;;
39448;SDS011;25151;45.566;9.382;2023-07-31T13:16:07;4.35;;;2.30;;
39448;SDS011;25151;45.566;9.382;2023-07-31T13:18:34;4.50;;;2.10;;
39448;SDS011;25151;45.566;9.382;2023-07-31T13:21:01;2.83;;;1.88;;
39448;SDS011;25151;45.566;9.382;2023-07-31T13:23:28;5.50;;;2.10;;
39448;SDS011;25151;45.566;9.382;2023-07-31T13:25:54;2.60;;;2.00;;
39448;SDS011;25151;45.566;9.382;2023-07-31T13:28:21;4.13;;;1.95;;
39448;SDS011;25151;45.566;9.382;2023-07-31T13:30:48;7.15;;;2.08;;
39448;SDS011;25151;45.566;9.382;2023-07-31T13:33:15;3.90;;;2.20;;
39448;SDS011;25151;45.566;9.382;2023-07-31T13:35:42;3.03;;;1.90;;
39448;SDS011;25151;45.566;9.382;2023-07-31T13:38:09;2.97;;;2.00;;
39448;SDS011;25151;45.566;9.382;2023-07-31T13:40:37;3.83;;;2.00;;
39448;SDS011;25151;45.566;9.382;2023-07-31T13:43:04;4.82;;;2.20;;
39448;SDS011;25151;45.566;9.382;2023-07-31T13:45:34;6.43;;;2.13;;
39448;SDS011;25151;45.566;9.382;2023-07-31T13:48:00;5.63;;;2.22;;
39448;SDS011;25151;45.566;9.382;2023-07-31T13:50:27;3.88;;;1.52;;
39448;SDS011;25151;45.566;9.382;2023-07-31T13:52:54;7.38;;;2.50;;
39448;SDS011;25151;45.566;9.382;2023-07-31T13:55:22;5.20;;;1.98;;
39448;SDS011;25151;45.566;9.382;2023-07-31T13:57:48;5.10;;;1.83;;
39448;SDS011;25151;45.566;9.382;2023-07-31T14:00:15;3.95;;;2.08;;
39448;SDS011;25151;45.566;9.382;2023-07-31T14:02:42;9.80;;;2.63;;
39448;SDS011;25151;45.566;9.382;2023-07-31T14:05:12;3.53;;;2.10;;
39448;SDS011;25151;45.566;9.382;2023-07-31T14:07:40;8.05;;;2.22;;
39448;SDS011;25151;45.566;9.382;2023-07-31T14:10:07;2.78;;;1.77;;
39448;SDS011;25151;45.566;9.382;2023-07-31T14:12:34;3.45;;;2.17;;
39448;SDS011;25151;45.566;9.382;2023-07-31T14:15:05;5.18;;;2.05;;
39448;SDS011;25151;45.566;9.382;2023-07-31T14:17:33;7.25;;;2.03;;
39448;SDS011;25151;45.566;9.382;2023-07-31T14:20:08;5.03;;;2.28;;
39448;SDS011;25151;45.566;9.382;2023-07-31T14:22:35;5.78;;;1.90;;
39448;SDS011;25151;45.566;9.382;2023-07-31T14:25:03;2.45;;;1.67;;
39448;SDS011;25151;45.566;9.382;2023-07-31T14:27:30;3.67;;;1.95;;
39448;SDS011;25151;45.566;9.382;2023-07-31T14:29:57;5.13;;;2.50;;
39448;SDS011;25151;45.566;9.382;2023-07-31T14:32:24;5.25;;;1.98;;
39448;SDS011;25151;45.566;9.382;2023-07-31T14:34:52;4.28;;;1.90;;
39448;SDS011;25151;45.566;9.382;2023-07-31T14:37:19;4.07;;;2.20;;
39448;SDS011;25151;45.566;9.382;2023-07-31T14:39:45;4.07;;;1.92;;
39448;SDS011;25151;45.566;9.382;2023-07-31T14:42:18;5.53;;;1.60;;
39448;SDS011;25151;45.566;9.382;2023-07-31T14:44:45;3.92;;;2.45;;
39448;SDS011;25151;45.566;9.382;2023-07-31T14:49:42;6.53;;;1.88;;
39448;SDS011;25151;45.566;9.382;2023-07-31T14:52:11;5.82;;;2.20;;
39448;SDS011;25151;45.566;9.382;2023-07-31T14:54:38;2.70;;;1.75;;
39448;SDS011;25151;45.566;9.382;2023-07-31T14:57:08;4.70;;;1.70;;
39448;SDS011;25151;45.566;9.382;2023-07-31T14:59:37;4.30;;;2.00;;
39448;SDS011;25151;45.566;9.382;2023-07-31T15:02:04;4.63;;;2.40;;
39448;SDS011;25151;45.566;9.382;2023-07-31T15:04:31;4.55;;;2.10;;
39448;SDS011;25151;45.566;9.382;2023-07-31T15:07:02;6.18;;;2.83;;